Station info - map view · info · telemetry · weather · raw · status · beacons · messages · bulletins · browse · moving · my account
Callsign, ship name or locator: Clear       
It is possible to search using wildcards (*?) after a prefix. Example: OH*
APRS station AI0OK-9 - show graphs
Map loading...
Mic-E message: En route
Location: 31°47.38' N 106°30.68' W - locator DM61RS89PM - show map - static map
2.6 miles Northwest bearing 326° from El Paso, El Paso County, Texas, United States [?]
4.1 miles East bearing 97° from Sunland Park, Doña Ana County, New Mexico, United States
4.2 miles Northwest bearing 337° from Ciudad Juárez, Chihuahua, Mexico
9.9 miles Southeast bearing 148° from Canutillo, El Paso County, Texas, United States
Last position: 2017-03-19 13:22:48 EDT (11d 7h8m ago)
2017-03-19 11:22:48 MDT local time at El Paso, United States [?]
Altitude: 3927 ft
Course: 90°
Speed: 9 MPH
Device: Kenwood: TM-D710 (rig)
Last path: AI0OK-9>SQ4WSX via ELPASO,CABALL*,WIDE2,qAR,WD8AJJ (good)
Positions stored: 31822
Stations near current position of AI0OK-9 - show more
callsign distance last heard - EDT      callsign distance last heard - EDT
EW06020.9 miles 217°2017-03-30 08:13:26 W5ELP C1.8 miles 90°2017-03-30 20:12:56
W5ELP-C1.8 miles 90°2017-03-30 20:12:53 ELPASO1.8 miles 90°2017-03-30 20:05:09
AE5HE C2.5 miles 141°2017-03-30 20:26:51 AE5HE-C2.5 miles 141°2017-03-30 20:27:01
FW03633.7 miles 331°2017-03-30 20:28:38 CW09583.7 miles 297°2017-03-30 20:23:32
KB5GZZ3.7 miles 69°2017-03-07 17:01:28 W5WIN-B3.7 miles 69°2017-03-30 20:27:03
W5WIN B3.7 miles 69°2017-03-30 20:26:53 N5FAZ3.9 miles 96°2017-03-30 20:25:48
EW02064.0 miles 358°2017-03-30 20:28:49 NT5HS-104.1 miles 317°2017-03-30 16:34:11
DW72104.5 miles 350°2017-03-30 20:30:30 K5WPH4.5 miles 54°2017-03-30 14:25:51
KB5HPT-A5.1 miles 68°2017-03-28 12:26:07 N5ZRE6.0 miles 65°2017-02-28 20:10:20
AA5EP-96.3 miles 346°2017-03-30 19:13:24 WELPAS6.8 miles 331°2017-03-30 19:48:15
Stations which heard AI0OK-9 directly on radio –
callsign pkts first heard - EDT last heard longest (tx => rx) longest at - EDT
K5FTW-5 8 2017-03-08 21:38:44 2017-03-08 21:59:27 EM12FR > EM12IR 12.6 miles 93° 2017-03-08 21:38:44
ELPASO 24 2017-03-08 13:59:05 2017-03-19 13:22:48 DM61XL > DM61SS 32.3 miles 312° 2017-03-19 12:47:43
W5CDM-1 1 2017-03-19 10:52:45 2017-03-19 10:52:45 DM81BF > DM81OX 83.5 miles 52° 2017-03-19 10:52:45
N5SOR-2 74 2017-03-08 15:12:29 2017-03-19 11:50:30 DM81RR > DM70XV 105.3 miles 237° 2017-03-08 17:16:56
W5NGU-4 1 2017-03-08 21:36:45 2017-03-08 21:36:45 EM12FR > EM13HL 53.6 miles 10° 2017-03-08 21:36:45
WD5GIC-3 1 2017-03-08 21:34:43 2017-03-08 21:34:43 EM12ER > EM12CJ 25.3 miles 207° 2017-03-08 21:34:43
KG5IE-2 2 2017-03-08 21:26:43 2017-03-08 21:28:43 EM12DR > EM12CQ 5.5 miles 229° 2017-03-08 21:28:43
KB5RLJ-4 1 2017-03-08 21:18:44 2017-03-08 21:18:44 EM12AR > EM12BL 15.5 miles 177° 2017-03-08 21:18:44
KK5MV-2 15 2017-03-08 19:49:01 2017-03-19 07:33:12 DM92UL > EM02FJ 44.3 miles 97° 2017-03-19 07:33:12
KK5MV-3 23 2017-03-08 19:00:16 2017-03-19 08:09:39 EM02EK > DM92UK 40.0 miles 270° 2017-03-19 06:58:32
KB5ASY-10 1 2017-03-08 21:45:46 2017-03-08 21:45:46 EM12HR > EM12HP 6.6 miles 169° 2017-03-08 21:45:46
KD5YCY-5 30 2017-03-08 19:26:52 2017-03-19 07:22:41 DM92VL > EM02CG 29.3 miles 119° 2017-03-08 19:26:52
KE5MLP-1 8 2017-03-08 17:45:02 2017-03-08 18:30:33 DM92IH > DM82WA 54.2 miles 250° 2017-03-08 18:30:33
N5PSP-2 6 2017-03-08 17:27:41 2017-03-08 17:40:54 DM81VW > DM81UT 8.6 miles 211° 2017-03-08 17:40:54
N5PSP-13 8 2017-03-08 17:47:02 2017-03-19 09:13:04 DM92AA > DM81XX 6.4 miles 234° 2017-03-19 09:02:36
KE5SXT-10 4 2017-03-08 17:02:55 2017-03-19 09:57:11 DM81OO > DM81NN 7.6 miles 232° 2017-03-08 17:04:55
ESTLND 29 2017-03-08 20:23:32 2017-03-19 06:46:32 EM02UM > EM02NL 29.9 miles 263° 2017-03-08 20:56:56

Only position packets which were originated by the station are shown here. The range statistics show some extra long hops, because some digipeaters do not correctly add themselves to the digipeater path. Please check the raw packets.
About this site
This page shows real-time information collected from the Automatic Position Reporting System Internet network (APRS-IS). APRS is used by amateur (ham) radio operators to transmit real-time position information, weather data, telemetry and messages over the radio. A vehicle equipped with a GPS receiver, a VHF transmitter or HF transceiver and a small computer device called a tracker transmits it's location, speed and course in a small data packet, which is then received by a nearby iGate receiving site which forwards the packet on the Internet. Systems connected to the Internet can send information on the APRS-IS without a radio transmitter, or collect and display information transmitted anywhere in the world.
FAQ · Blog · Discussion group · Linking to aprs.fi · AIS sites · Service status · Database statistics · Advertising on aprs.fi · Technical details · API · Change log · Planned changes · Credits and thanks · Terms Of Service · iPhone/iPad APRS